Time;durP1;ratioP1;P1;durP2;ratioP2;P2;SDS_P1;SDS_P2;PMS_P1;PMS_P2;Temp;Humidity;BMP_temperature;BMP_pressure;BME280_temperature;BME280_humidity;BME280_pressure;Samples;Min_cycle;Max_cycle;Signal;HPM_P1;HPM_P2
2023/07/03 00:00:42;;;;;;;0.10;0.10;;;;;;;14.22;100.00;96136.19;5072191;28;20477;-79
2023/07/03 00:03:28;;;;;;;0.10;0.10;;;;;;;14.27;100.00;96139.94;5071179;28;20564;-79
2023/07/03 00:06:15;;;;;;;0.10;0.10;;;;;;;14.15;100.00;96129.50;5057227;28;20036;-79
2023/07/03 00:09:00;;;;;;;0.00;0.00;;;;;;;14.05;100.00;96135.75;5066368;28;20043;-79
2023/07/03 00:11:47;;;;;;;0.10;0.10;;;;;;;13.97;100.00;96133.66;5071295;28;20131;-79
2023/07/03 00:14:33;;;;;;;0.10;0.10;;;;;;;13.90;100.00;96130.47;5072006;28;20043;-79
2023/07/03 00:17:19;;;;;;;0.05;0.05;;;;;;;13.83;100.00;96138.03;5071351;28;20040;-80
2023/07/03 00:20:07;;;;;;;0.10;0.10;;;;;;;13.77;100.00;96139.13;5069472;28;20040;-79
2023/07/03 00:22:53;;;;;;;0.10;0.10;;;;;;;13.70;100.00;96144.03;5071869;28;20047;-80
2023/07/03 00:25:40;;;;;;;0.10;0.10;;;;;;;13.60;100.00;96134.91;5072292;28;20044;-79
2023/07/03 00:28:26;;;;;;;0.03;0.03;;;;;;;13.55;100.00;96137.63;5073186;28;20039;-79
2023/07/03 00:31:12;;;;;;;0.10;0.10;;;;;;;13.59;100.00;96140.56;5072895;28;20040;-79
2023/07/03 00:33:58;;;;;;;0.10;0.10;;;;;;;13.64;100.00;96138.66;5057219;28;20044;-78
2023/07/03 00:36:44;;;;;;;0.00;0.00;;;;;;;13.69;100.00;96129.75;5056319;28;20047;-78
2023/07/03 00:39:30;;;;;;;0.10;0.10;;;;;;;13.79;100.00;96140.47;5057311;28;20052;-79
2023/07/03 00:42:16;;;;;;;0.10;0.10;;;;;;;13.77;100.00;96129.16;5070362;28;20123;-79
2023/07/03 00:45:05;;;;;;;0.10;0.10;;;;;;;13.72;100.00;96123.84;5071347;28;20628;-79
2023/07/03 00:47:51;;;;;;;0.10;0.10;;;;;;;13.75;100.00;96133.22;5056406;28;20044;-80
2023/07/03 00:50:37;;;;;;;0.10;0.10;;;;;;;13.76;100.00;96124.06;5070053;28;20163;-79
2023/07/03 00:53:23;;;;;;;0.10;0.10;;;;;;;13.86;100.00;96127.53;5070838;28;20229;-80
2023/07/03 00:56:10;;;;;;;0.10;0.10;;;;;;;13.85;100.00;96123.25;5069337;28;20158;-79
2023/07/03 00:58:56;;;;;;;0.10;0.10;;;;;;;13.89;100.00;96128.84;5057351;28;20044;-80
2023/07/03 01:02:08;;;;;;;0.10;0.10;;;;;;;13.90;100.00;96146.59;5064931;28;20040;-79
2023/07/03 01:05:05;;;;;;;0.10;0.10;;;;;;;13.80;100.00;96120.56;5072273;28;20040;-79
2023/07/03 01:07:53;;;;;;;0.10;0.10;;;;;;;13.69;100.00;96119.00;5056692;28;21038;-79
2023/07/03 01:10:40;;;;;;;0.10;0.10;;;;;;;13.74;100.00;96127.03;5070813;28;20044;-80
2023/07/03 01:13:28;;;;;;;0.10;0.10;;;;;;;13.72;100.00;96133.78;5044665;28;20067;-80
2023/07/03 01:16:15;;;;;;;0.00;0.00;;;;;;;13.65;100.00;96137.56;5072149;28;20039;-79
2023/07/03 01:19:03;;;;;;;0.10;0.10;;;;;;;13.74;100.00;96132.41;5057078;28;20043;-79
2023/07/03 01:21:54;;;;;;;0.10;0.10;;;;;;;13.72;100.00;96128.41;5056732;28;20741;-79
2023/07/03 01:24:48;;;;;;;0.10;0.10;;;;;;;13.63;100.00;96114.75;5054963;28;20166;-79
2023/07/03 01:27:37;;;;;;;0.10;0.10;;;;;;;13.60;100.00;96121.44;5070157;28;20089;-79
2023/07/03 01:30:25;;;;;;;0.10;0.10;;;;;;;13.62;100.00;96130.06;5054876;28;20159;-79
2023/07/03 01:33:21;;;;;;;0.00;0.00;;;;;;;13.49;100.00;96141.41;5071117;28;20040;-78
2023/07/03 01:36:11;;;;;;;0.10;0.10;;;;;;;13.48;100.00;96134.41;5069830;28;20048;-79
2023/07/03 01:39:00;;;;;;;0.10;0.10;;;;;;;13.29;100.00;96136.06;5055592;28;20052;-78
2023/07/03 01:41:47;;;;;;;0.10;0.10;;;;;;;13.20;100.00;96126.97;5071756;28;20052;-79
2023/07/03 01:44:33;;;;;;;0.03;0.03;;;;;;;13.19;100.00;96115.41;5070152;28;20771;-78
2023/07/03 01:47:20;;;;;;;0.10;0.10;;;;;;;13.07;100.00;96113.03;5056896;28;20158;-79
2023/07/03 01:50:12;;;;;;;0.10;0.10;;;;;;;12.94;100.00;96110.88;5057156;28;20635;-78
2023/07/03 01:53:03;;;;;;;0.10;0.10;;;;;;;12.96;100.00;96108.72;5071081;28;20515;-79
2023/07/03 01:56:04;;;;;;;0.10;0.10;;;;;;;13.00;100.00;96109.81;5038467;28;20780;-79
2023/07/03 01:58:55;;;;;;;0.00;0.00;;;;;;;13.02;100.00;96106.84;5069789;28;20035;-79
2023/07/03 02:01:55;;;;;;;0.10;0.10;;;;;;;12.91;100.00;96100.66;5067626;28;20043;-79
2023/07/03 02:04:49;;;;;;;0.10;0.10;;;;;;;13.00;100.00;96115.19;5055439;28;20108;-79
2023/07/03 02:07:35;;;;;;;0.00;0.00;;;;;;;13.10;100.00;96123.22;5053808;28;20043;-78
2023/07/03 02:10:23;;;;;;;0.10;0.10;;;;;;;13.17;100.00;96116.75;5057459;28;20413;-78
2023/07/03 02:13:11;;;;;;;0.10;0.10;;;;;;;13.04;100.00;96108.19;5043368;28;20047;-78
2023/07/03 02:15:57;;;;;;;0.10;0.10;;;;;;;13.16;100.00;96117.84;5056352;28;20055;-79
2023/07/03 02:18:43;;;;;;;0.10;0.10;;;;;;;13.20;100.00;96113.53;5054674;28;20075;-79
2023/07/03 02:21:29;;;;;;;0.08;0.08;;;;;;;13.22;100.00;96103.31;5070183;28;20047;-79
2023/07/03 02:24:15;;;;;;;0.10;0.10;;;;;;;13.20;100.00;96116.22;5055366;28;20048;-78
2023/07/03 02:27:03;;;;;;;0.10;0.10;;;;;;;13.03;100.00;96114.63;5058650;28;20101;-78
2023/07/03 02:29:50;;;;;;;0.10;0.10;;;;;;;12.94;100.00;96110.09;5055627;28;20407;-78
2023/07/03 02:32:40;;;;;;;0.10;0.10;;;;;;;12.90;100.00;96117.88;5055616;28;20037;-79
2023/07/03 02:35:26;;;;;;;0.10;0.10;;;;;;;12.85;100.00;96109.84;5055310;28;20040;-78
2023/07/03 02:38:12;;;;;;;0.10;0.10;;;;;;;12.79;100.00;96119.78;5055890;28;20119;-79
2023/07/03 02:40:59;;;;;;;0.10;0.10;;;;;;;12.77;100.00;96105.81;5056729;28;20047;-78
2023/07/03 02:43:45;;;;;;;0.10;0.10;;;;;;;12.69;100.00;96108.25;5053106;28;20052;-78
2023/07/03 02:46:31;;;;;;;0.10;0.10;;;;;;;12.60;100.00;96116.00;5054965;28;20036;-78
2023/07/03 02:49:16;;;;;;;0.10;0.10;;;;;;;12.53;100.00;96118.19;5069288;28;20482;-78
2023/07/03 02:52:04;;;;;;;0.10;0.10;;;;;;;12.41;100.00;96121.13;5048989;28;20514;-77
2023/07/03 02:54:53;;;;;;;0.10;0.10;;;;;;;12.22;100.00;96112.81;5053424;28;20071;-78
2023/07/03 02:57:39;;;;;;;0.10;0.10;;;;;;;12.19;100.00;96107.97;5048922;28;20131;-78
2023/07/03 03:00:28;;;;;;;0.10;0.10;;;;;;;12.07;100.00;96114.66;5041506;28;20048;-79
2023/07/03 03:03:14;;;;;;;0.00;0.00;;;;;;;12.16;100.00;96105.81;5042558;28;20036;-79
2023/07/03 03:06:00;;;;;;;0.10;0.10;;;;;;;12.21;100.00;96111.16;5069801;28;20690;-79
2023/07/03 03:08:48;;;;;;;0.10;0.10;;;;;;;12.20;100.00;96108.75;5056470;28;20052;-79
2023/07/03 03:11:37;;;;;;;0.10;0.10;;;;;;;12.14;100.00;96115.19;5053622;28;20048;-78
2023/07/03 03:14:25;;;;;;;0.10;0.10;;;;;;;11.96;100.00;96103.09;5053725;28;20143;-78
2023/07/03 03:17:11;;;;;;;0.10;0.10;;;;;;;11.93;100.00;96111.69;5054431;28;20063;-79
2023/07/03 03:19:57;;;;;;;0.10;0.10;;;;;;;11.85;100.00;96113.00;5056968;28;20150;-79
2023/07/03 03:22:43;;;;;;;0.00;0.00;;;;;;;11.81;100.00;96113.78;5055303;28;20076;-78
2023/07/03 03:25:29;;;;;;;0.13;0.13;;;;;;;11.76;100.00;96117.25;5070231;28;20055;-79
2023/07/03 03:28:15;;;;;;;0.10;0.10;;;;;;;11.83;100.00;96117.00;5068697;28;20760;-78
2023/07/03 03:31:01;;;;;;;0.10;0.10;;;;;;;11.79;100.00;96118.59;5053679;28;20123;-78
2023/07/03 03:33:48;;;;;;;0.10;0.10;;;;;;;11.79;100.00;96114.03;5054396;28;20059;-79
2023/07/03 03:36:38;;;;;;;0.10;0.10;;;;;;;11.83;100.00;96114.31;5054846;28;20043;-79
2023/07/03 03:39:25;;;;;;;0.10;0.10;;;;;;;11.73;100.00;96120.44;5047150;28;20054;-78
2023/07/03 03:42:11;;;;;;;0.10;0.10;;;;;;;11.64;100.00;96117.47;5049880;28;20044;-78
2023/07/03 03:44:59;;;;;;;0.10;0.10;;;;;;;11.61;100.00;96117.19;5049946;28;20044;-78
2023/07/03 03:47:47;;;;;;;0.10;0.10;;;;;;;11.75;100.00;96121.00;5053207;28;20130;-78
2023/07/03 03:50:34;;;;;;;0.10;0.10;;;;;;;11.84;100.00;96111.41;5046113;28;20486;-79
2023/07/03 03:53:20;;;;;;;0.10;0.10;;;;;;;12.01;100.00;96094.25;5052257;28;20792;-79
2023/07/03 03:56:06;;;;;;;0.10;0.10;;;;;;;12.18;100.00;96095.63;5052925;28;20423;-78
2023/07/03 03:58:54;;;;;;;0.10;0.10;;;;;;;12.24;100.00;96086.50;5051531;28;20079;-79
2023/07/03 04:01:43;;;;;;;0.10;0.10;;;;;;;12.23;100.00;96092.16;5051349;28;20040;-78
2023/07/03 04:04:29;;;;;;;0.17;0.17;;;;;;;12.18;100.00;96095.63;5052546;28;20095;-79
2023/07/03 04:07:15;;;;;;;0.10;0.10;;;;;;;12.18;100.00;96108.22;5067275;28;21001;-78
2023/07/03 04:10:03;;;;;;;0.10;0.10;;;;;;;12.08;100.00;96111.72;5038139;28;20079;-80
2023/07/03 04:12:49;;;;;;;0.10;0.10;;;;;;;12.08;100.00;96109.03;5051786;28;20056;-79
2023/07/03 04:15:51;;;;;;;0.10;0.10;;;;;;;12.05;100.00;96114.09;5051937;28;20182;-79
2023/07/03 04:18:40;;;;;;;0.10;0.10;;;;;;;11.82;100.00;96104.66;5053271;28;20040;-79
2023/07/03 04:21:26;;;;;;;0.10;0.10;;;;;;;11.76;100.00;96105.72;5052338;28;20157;-79
2023/07/03 04:24:13;;;;;;;0.10;0.10;;;;;;;11.62;100.00;96108.09;5053877;28;20399;-78
2023/07/03 04:26:59;;;;;;;0.10;0.10;;;;;;;11.58;100.00;96098.94;5053467;28;20049;-79
2023/07/03 04:29:45;;;;;;;0.10;0.10;;;;;;;11.54;100.00;96112.06;5052176;28;20036;-79
2023/07/03 04:32:31;;;;;;;0.05;0.05;;;;;;;11.47;100.00;96113.38;5039234;28;20051;-80
2023/07/03 04:35:16;;;;;;;0.13;0.13;;;;;;;11.42;100.00;96108.81;5065516;28;20044;-79
2023/07/03 04:38:03;;;;;;;0.10;0.10;;;;;;;11.48;100.00;96123.03;5055453;28;20067;-80
2023/07/03 04:40:53;;;;;;;0.10;0.10;;;;;;;11.41;100.00;96120.59;5049325;28;20118;-79
2023/07/03 04:43:44;;;;;;;0.10;0.10;;;;;;;11.50;100.00;96120.88;5053770;28;20509;-79
2023/07/03 04:46:30;;;;;;;0.10;0.10;;;;;;;11.34;100.00;96123.50;5065900;28;20040;-79
2023/07/03 04:49:16;;;;;;;0.10;0.10;;;;;;;11.31;100.00;96121.34;5053378;28;20144;-79
2023/07/03 04:52:04;;;;;;;0.10;0.10;;;;;;;11.25;100.00;96137.66;5054326;28;20064;-78
2023/07/03 04:54:50;;;;;;;0.10;0.10;;;;;;;11.30;100.00;96125.09;5053530;28;20099;-79
2023/07/03 04:57:40;;;;;;;0.40;0.40;;;;;;;11.36;100.00;96121.38;5054106;28;20533;-78
2023/07/03 05:00:27;;;;;;;0.10;0.10;;;;;;;11.45;100.00;96119.00;5043570;28;20044;-78
2023/07/03 05:03:13;;;;;;;0.10;0.10;;;;;;;11.51;100.00;96123.31;5050714;28;20222;-78
2023/07/03 05:05:59;;;;;;;0.10;0.10;;;;;;;11.50;100.00;96120.88;5052736;28;20040;-79
2023/07/03 05:08:46;;;;;;;0.10;0.10;;;;;;;11.55;100.00;96128.97;5049724;28;21429;-79
2023/07/03 05:11:33;;;;;;;0.10;0.10;;;;;;;11.59;100.00;96122.00;5049619;28;20037;-78
2023/07/03 05:14:19;;;;;;;0.00;0.00;;;;;;;11.64;100.00;96132.75;5048815;28;20233;-78
2023/07/03 05:17:05;;;;;;;0.10;0.10;;;;;;;11.66;100.00;96125.22;5052602;28;20771;-78
2023/07/03 05:19:51;;;;;;;0.10;0.10;;;;;;;11.74;100.00;96138.13;5036644;28;20559;-79
2023/07/03 05:22:38;;;;;;;0.10;0.10;;;;;;;11.80;100.00;96141.63;5051067;28;20074;-78
2023/07/03 05:25:24;;;;;;;0.00;0.00;;;;;;;11.85;100.00;96133.66;5049119;28;20137;-79
2023/07/03 05:28:10;;;;;;;0.10;0.10;;;;;;;12.08;100.00;96143.09;5038871;28;20554;-78
2023/07/03 05:30:57;;;;;;;0.10;0.10;;;;;;;12.13;100.00;96137.72;5049245;28;20042;-78
2023/07/03 05:33:43;;;;;;;0.10;0.10;;;;;;;12.21;100.00;96147.91;5049943;28;20048;-79
2023/07/03 05:36:30;;;;;;;0.10;0.10;;;;;;;12.28;100.00;96148.47;5052257;28;20502;-79
2023/07/03 05:39:16;;;;;;;0.10;0.10;;;;;;;12.29;100.00;96147.41;5049449;28;20048;-78
2023/07/03 05:42:02;;;;;;;0.10;0.10;;;;;;;12.43;100.00;96153.84;5051711;28;20048;-79
2023/07/03 05:44:48;;;;;;;0.10;0.10;;;;;;;12.60;100.00;96153.59;5063723;28;20133;-79
2023/07/03 05:47:37;;;;;;;0.10;0.10;;;;;;;12.62;100.00;96159.50;5036281;28;20040;-79
2023/07/03 05:50:23;;;;;;;0.10;0.10;;;;;;;12.76;100.00;96165.13;5050390;28;20048;-80
2023/07/03 05:53:09;;;;;;;0.10;0.10;;;;;;;12.86;100.00;96161.66;5038075;28;20121;-79
2023/07/03 05:55:57;;;;;;;0.10;0.10;;;;;;;12.98;100.00;96167.53;5053020;28;20119;-78
2023/07/03 05:59:14;;;;;;;0.10;0.10;;;;;;;12.98;100.00;96167.53;5045890;28;20044;-79
2023/07/03 06:02:03;;;;;;;0.10;0.10;;;;;;;13.00;100.00;96160.84;5050802;28;20043;-79
2023/07/03 06:04:49;;;;;;;0.10;0.10;;;;;;;13.27;100.00;96165.91;5050814;28;20707;-79
2023/07/03 06:07:35;;;;;;;0.10;0.10;;;;;;;13.44;100.00;96160.22;5048155;28;20037;-79
2023/07/03 06:10:23;;;;;;;0.10;0.10;;;;;;;13.70;100.00;96173.59;5049521;28;20044;-79
2023/07/03 06:13:09;;;;;;;0.10;0.10;;;;;;;13.97;100.00;96167.81;5043033;28;20087;-79
2023/07/03 06:15:56;;;;;;;0.10;0.10;;;;;;;13.74;100.00;96169.25;5050890;28;20142;-79
2023/07/03 06:18:42;;;;;;;0.20;0.17;;;;;;;14.01;100.00;96168.84;5063102;28;21308;-79
2023/07/03 06:21:28;;;;;;;0.10;0.10;;;;;;;14.56;100.00;96164.28;5052164;28;20607;-80
2023/07/03 06:24:14;;;;;;;0.10;0.10;;;;;;;14.57;100.00;96164.00;5047558;28;20044;-77
2023/07/03 06:27:02;;;;;;;0.10;0.10;;;;;;;14.74;100.00;96180.53;5035086;28;20040;-78
2023/07/03 06:29:48;;;;;;;0.10;0.10;;;;;;;14.61;100.00;96183.88;5048482;28;20052;-79
2023/07/03 06:32:34;;;;;;;0.10;0.10;;;;;;;14.65;100.00;96189.50;5033442;28;20063;-78
2023/07/03 06:35:20;;;;;;;0.10;0.10;;;;;;;14.88;100.00;96183.41;5050170;28;20054;-78
2023/07/03 06:38:07;;;;;;;0.15;0.15;;;;;;;15.12;100.00;96178.06;5055030;28;20041;-79
2023/07/03 06:40:59;;;;;;;0.10;0.10;;;;;;;15.40;100.00;96198.00;5049107;28;20155;-79
2023/07/03 06:43:45;;;;;;;0.10;0.10;;;;;;;15.42;100.00;96189.66;5063381;28;20131;-80
2023/07/03 06:46:32;;;;;;;0.10;0.10;;;;;;;15.35;100.00;96192.69;5042096;28;20716;-79
2023/07/03 06:49:20;;;;;;;0.10;0.10;;;;;;;15.31;100.00;96191.63;5050086;28;20051;-79
2023/07/03 06:52:06;;;;;;;0.10;0.10;;;;;;;15.25;100.00;96198.97;5036374;28;20041;-79
2023/07/03 06:54:52;;;;;;;0.10;0.10;;;;;;;15.24;100.00;96208.13;5036999;28;20037;-79
2023/07/03 06:57:38;;;;;;;0.10;0.10;;;;;;;14.49;100.00;96213.84;5046118;28;20036;-78
2023/07/03 07:00:24;;;;;;;0.10;0.10;;;;;;;14.88;100.00;96204.97;5031132;28;20040;-79
2023/07/03 07:03:12;;;;;;;0.10;0.10;;;;;;;15.26;100.00;96197.09;5050057;28;20040;-79
2023/07/03 07:05:58;;;;;;;0.10;0.10;;;;;;;15.46;100.00;96188.78;5034222;28;20101;-79
2023/07/03 07:08:44;;;;;;;0.10;0.10;;;;;;;15.48;100.00;96197.38;5033193;28;20048;-79
2023/07/03 07:11:33;;;;;;;0.10;0.10;;;;;;;15.83;100.00;96193.53;5049571;28;20121;-78
2023/07/03 07:14:19;;;;;;;0.10;0.10;;;;;;;16.09;100.00;96195.91;5049892;28;20040;-79
2023/07/03 07:17:05;;;;;;;0.00;0.00;;;;;;;15.91;100.00;96210.16;5051937;28;20043;-79
2023/07/03 07:19:51;;;;;;;0.10;0.10;;;;;;;15.98;100.00;96199.84;5067691;28;20040;-79
2023/07/03 07:22:37;;;;;;;0.10;0.10;;;;;;;15.86;100.00;96209.13;5039031;28;20043;-79
2023/07/03 07:25:23;;;;;;;0.10;0.10;;;;;;;15.94;100.00;96194.19;5053223;28;20504;-78
2023/07/03 07:28:09;;;;;;;0.10;0.10;;;;;;;15.77;100.00;96196.56;5053969;28;20406;-79
2023/07/03 07:30:55;;;;;;;0.10;0.10;;;;;;;16.19;100.00;96190.41;5052454;28;20062;-79
2023/07/03 07:33:41;;;;;;;0.10;0.10;;;;;;;16.44;100.00;96198.13;5053258;28;20040;-79
2023/07/03 07:36:27;;;;;;;0.10;0.10;;;;;;;16.55;100.00;96187.97;5040301;28;20064;-79
2023/07/03 07:39:13;;;;;;;0.10;0.10;;;;;;;16.59;100.00;96197.13;5072911;28;20040;-79
2023/07/03 07:42:02;;;;;;;0.10;0.10;;;;;;;16.08;100.00;96197.00;5060607;28;20069;-79
2023/07/03 07:44:48;;;;;;;0.10;0.10;;;;;;;15.82;100.00;96196.53;5060141;28;20104;-78
2023/07/03 07:47:34;;;;;;;0.20;0.20;;;;;;;15.75;100.00;96207.66;5046430;28;20618;-77
2023/07/03 07:50:20;;;;;;;0.10;0.10;;;;;;;16.30;100.00;96196.44;5074827;28;20040;-78
2023/07/03 07:53:06;;;;;;;0.10;0.10;;;;;;;16.37;100.00;96203.09;5047496;28;20121;-78
2023/07/03 07:55:55;;;;;;;0.10;0.10;;;;;;;16.66;100.00;96200.25;5057757;28;20177;-78
2023/07/03 07:58:41;;;;;;;0.20;0.20;;;;;;;16.97;100.00;96194.41;5043857;28;20040;-78
2023/07/03 08:01:27;;;;;;;0.10;0.10;;;;;;;16.78;100.00;96185.50;5058426;28;20459;-79
2023/07/03 08:04:13;;;;;;;0.20;0.20;;;;;;;17.23;100.00;96184.75;5045444;28;20589;-79
2023/07/03 08:06:59;;;;;;;0.10;0.10;;;;;;;17.18;100.00;96200.25;5060813;28;20036;-79
2023/07/03 08:09:45;;;;;;;0.10;0.10;;;;;;;17.31;100.00;96177.06;5045975;28;20745;-79
2023/07/03 08:12:31;;;;;;;0.10;0.10;;;;;;;17.17;100.00;96175.13;5071381;28;20036;-79
2023/07/03 08:15:17;;;;;;;0.10;0.10;;;;;;;17.40;100.00;96180.69;5061360;28;20108;-79
2023/07/03 08:18:03;;;;;;;0.10;0.10;;;;;;;17.33;100.00;96202.69;5042981;28;20589;-79
2023/07/03 08:20:50;;;;;;;0.10;0.10;;;;;;;17.55;100.00;96200.13;5073626;28;20044;-79
2023/07/03 08:23:36;;;;;;;0.10;0.10;;;;;;;17.63;100.00;96198.63;5044917;28;20043;-79
2023/07/03 08:26:23;;;;;;;0.10;0.10;;;;;;;16.76;100.00;96196.63;5058361;28;20060;-79
2023/07/03 08:29:10;;;;;;;0.10;0.10;;;;;;;17.04;100.00;96205.63;5059441;28;20589;-78
2023/07/03 08:31:56;;;;;;;0.10;0.10;;;;;;;17.01;100.00;96200.00;5072495;28;20047;-79
2023/07/03 08:34:42;;;;;;;0.20;0.20;;;;;;;17.02;100.00;96202.41;5052600;28;20047;-80
2023/07/03 08:37:29;;;;;;;0.10;0.10;;;;;;;17.04;100.00;96205.63;5044787;28;20115;-79
2023/07/03 08:40:18;;;;;;;0.10;0.10;;;;;;;17.42;100.00;96209.00;5047600;28;20037;-78
2023/07/03 08:43:07;;;;;;;0.10;0.10;;;;;;;17.04;100.00;96212.91;5052265;28;20621;-79
2023/07/03 08:45:56;;;;;;;0.10;0.10;;;;;;;17.36;100.00;96204.03;5065036;28;20627;-78
2023/07/03 08:48:44;;;;;;;0.10;0.10;;;;;;;17.10;100.00;96198.22;5031005;28;20529;-79
2023/07/03 08:51:34;;;;;;;0.10;0.10;;;;;;;16.63;100.00;96210.81;5029848;28;20074;-79
2023/07/03 08:54:28;;;;;;;0.10;0.10;;;;;;;16.85;100.00;96207.56;5051654;28;20036;-78
2023/07/03 08:57:14;;;;;;;0.15;0.15;;;;;;;16.85;100.00;96210.25;5051901;28;20039;-78
2023/07/03 09:00:01;;;;;;;0.10;0.10;;;;;;;16.95;100.00;96208.19;5052849;28;20985;-79
2023/07/03 09:03:00;;;;;;;0.20;0.20;;;;;;;17.09;100.00;96207.44;5040289;28;20044;-78
2023/07/03 09:06:14;;;;;;;0.10;0.10;;;;;;;17.22;100.00;96217.50;5053450;28;20040;-78
2023/07/03 09:09:25;;;;;;;0.10;0.10;;;;;;;17.66;100.00;96216.97;5050104;28;20506;-78
2023/07/03 09:12:26;;;;;;;0.10;0.10;;;;;;;17.52;100.00;96219.69;5047036;28;20401;-78
2023/07/03 09:15:16;;;;;;;;;;;;;;;16.56;100.00;96222.00;5054318;28;20036;-78
2023/07/03 09:18:10;;;;;;;0.10;0.10;;;;;;;17.11;100.00;96221.47;5038404;28;19920;-79
2023/07/03 09:20:58;;;;;;;0.05;0.05;;;;;;;16.89;100.00;96220.19;5038789;28;20056;-79
2023/07/03 09:24:05;;;;;;;0.10;0.10;;;;;;;17.17;100.00;96222.97;5027746;28;20040;-78
2023/07/03 09:27:05;;;;;;;0.10;0.10;;;;;;;17.24;100.00;96220.69;5050179;28;20820;-79
2023/07/03 09:29:52;;;;;;;0.10;0.10;;;;;;;16.62;100.00;96230.84;5044208;28;20036;-78
2023/07/03 09:32:38;;;;;;;0.10;0.10;;;;;;;16.23;100.00;96237.28;5042459;28;20058;-79
2023/07/03 09:35:35;;;;;;;0.10;0.10;;;;;;;16.13;100.00;96235.53;5050759;28;20032;-79
2023/07/03 09:38:23;;;;;;;0.10;0.10;;;;;;;16.26;100.00;96239.41;5044764;28;20740;-79
2023/07/03 09:41:09;;;;;;;0.20;0.20;;;;;;;16.59;100.00;96236.84;5048169;28;20079;-78
2023/07/03 09:43:56;;;;;;;0.10;0.10;;;;;;;16.09;100.00;96249.88;5044033;28;20045;-79
2023/07/03 09:46:45;;;;;;;0.10;0.10;;;;;;;15.96;100.00;96248.69;5036805;28;20036;-79
2023/07/03 09:49:33;;;;;;;0.10;0.10;;;;;;;16.15;100.00;96254.94;5049725;28;20050;-78
2023/07/03 09:52:19;;;;;;;0.10;0.10;;;;;;;16.86;100.00;96258.59;5036419;28;20087;-78
2023/07/03 09:55:05;;;;;;;0.10;0.10;;;;;;;16.74;100.00;96252.84;5048691;28;20119;-78
2023/07/03 09:57:51;;;;;;;0.10;0.10;;;;;;;16.86;100.00;96252.41;5035530;28;20576;-78
2023/07/03 10:00:43;;;;;;;0.10;0.10;;;;;;;17.65;100.00;96266.78;5036257;28;20036;-78
2023/07/03 10:03:32;;;;;;;0.20;0.20;;;;;;;17.67;100.00;96261.88;5046886;28;20100;-78
2023/07/03 10:06:19;;;;;;;0.10;0.10;;;;;;;17.94;100.00;96277.38;5043766;28;20227;-79
2023/07/03 10:09:15;;;;;;;0.10;0.10;;;;;;;18.11;100.00;96265.94;5050461;28;20044;-79
2023/07/03 10:12:10;;;;;;;0.20;0.20;;;;;;;18.28;100.00;96265.34;5037491;28;20086;-79
2023/07/03 10:15:20;;;;;;;0.10;0.10;;;;;;;18.27;100.00;96263.72;5049566;28;20036;-79
2023/07/03 10:18:13;;;;;;;0.10;0.10;;;;;;;18.88;100.00;96251.59;5049419;28;20381;-79
2023/07/03 10:21:06;;;;;;;0.10;0.10;;;;;;;19.49;94.29;96255.56;5035250;28;20602;-79
2023/07/03 10:23:54;;;;;;;0.20;0.20;;;;;;;19.69;90.41;96260.50;5049519;28;20064;-79
2023/07/03 10:26:56;;;;;;;0.10;0.10;;;;;;;19.67;89.79;96257.28;5035442;28;20111;-78
2023/07/03 10:29:52;;;;;;;0.10;0.10;;;;;;;19.22;91.84;96256.50;5032093;28;20048;-78
2023/07/03 10:32:39;;;;;;;0.10;0.10;;;;;;;18.86;92.57;96267.38;5049328;28;20051;-79
2023/07/03 10:35:30;;;;;;;0.10;0.10;;;;;;;18.33;92.29;96266.03;5036142;28;20150;-79
2023/07/03 10:38:40;;;;;;;0.15;0.15;;;;;;;19.21;88.51;96276.59;5050425;28;20498;-79
2023/07/03 10:41:36;;;;;;;0.10;0.10;;;;;;;18.73;90.38;96260.09;5037063;28;20078;-78
2023/07/03 10:44:36;;;;;;;0.13;0.10;;;;;;;18.82;90.36;96258.25;5048241;28;21068;-79
2023/07/03 10:47:39;;;;;;;0.10;0.10;;;;;;;19.03;91.22;96242.31;5050587;28;20052;-79
2023/07/03 10:50:34;;;;;;;0.10;0.10;;;;;;;19.08;90.96;96247.63;5051729;28;20056;-80
2023/07/03 10:53:32;;;;;;;0.20;0.20;;;;;;;20.06;90.02;96236.69;5053216;28;20115;-79
2023/07/03 10:56:34;;;;;;;0.10;0.10;;;;;;;20.83;80.02;96235.28;5068509;28;20035;-79
2023/07/03 10:59:25;;;;;;;0.10;0.10;;;;;;;20.44;84.04;96233.47;5054429;28;20094;-79
2023/07/03 11:02:27;;;;;;;0.10;0.10;;;;;;;21.22;76.39;96231.59;5047313;28;20028;-78
2023/07/03 11:05:40;;;;;;;0.10;0.10;;;;;;;20.78;77.68;96241.69;5055102;28;20105;-79
2023/07/03 11:08:38;;;;;;;0.10;0.10;;;;;;;20.02;86.14;96238.47;5051141;28;20048;-79
2023/07/03 11:11:33;;;;;;;0.10;0.10;;;;;;;20.34;83.85;96234.56;5054608;28;20036;-78
2023/07/03 11:15:03;;;;;;;0.10;0.10;;;;;;;20.59;80.60;96235.75;5052465;28;20394;-79
2023/07/03 11:17:58;;;;;;;0.10;0.10;;;;;;;20.77;80.55;96223.75;5053641;28;20050;-79
2023/07/03 11:21:02;;;;;;;0.20;0.20;;;;;;;22.10;73.87;96220.19;5052155;28;20127;-79
2023/07/03 11:24:29;;;;;;;0.15;0.10;;;;;;;22.09;69.23;96215.84;5052348;28;20056;-79
2023/07/03 11:27:34;;;;;;;0.10;0.10;;;;;;;22.68;68.87;96209.59;5053844;28;20314;-79
2023/07/03 11:30:22;;;;;;;0.20;0.20;;;;;;;23.16;69.50;96208.25;5051259;28;21063;-78
2023/07/03 11:33:09;;;;;;;0.20;0.20;;;;;;;22.62;68.89;96232.72;5052375;28;20029;-79
2023/07/03 11:36:00;;;;;;;0.10;0.10;;;;;;;21.27;72.13;96220.59;5040232;28;20033;-79
2023/07/03 11:39:05;;;;;;;;;;;;;;;22.20;69.12;96219.03;5047630;28;20036;-78
2023/07/03 11:41:59;;;;;;;0.10;0.10;;;;;;;22.30;69.65;96231.47;5054071;28;19917;-79
2023/07/03 11:44:57;;;;;;;0.20;0.20;;;;;;;22.11;67.32;96215.56;5050892;28;20044;-79
2023/07/03 11:47:43;;;;;;;0.20;0.20;;;;;;;22.16;62.93;96220.78;5038138;28;20033;-79
2023/07/03 11:50:31;;;;;;;0.10;0.10;;;;;;;23.06;64.54;96207.53;5051457;28;20044;-78
2023/07/03 11:53:46;;;;;;;0.20;0.20;;;;;;;26.80;36.78;96208.72;5052880;28;20032;-79
2023/07/03 11:56:44;;;;;;;0.10;0.10;;;;;;;24.14;49.03;96215.56;5049984;28;20037;-79
2023/07/03 11:59:36;;;;;;;0.10;0.10;;;;;;;22.23;62.36;96218.34;5037398;28;20040;-79
2023/07/03 12:02:21;;;;;;;0.10;0.10;;;;;;;21.50;68.97;96223.09;5051908;28;20037;-79
2023/07/03 12:05:09;;;;;;;0.10;0.10;;;;;;;21.30;66.46;96225.38;5049663;28;20044;-79
2023/07/03 12:07:55;;;;;;;0.10;0.10;;;;;;;21.12;66.78;96242.81;5051680;28;20513;-79
2023/07/03 12:10:54;;;;;;;0.10;0.10;;;;;;;22.98;54.50;96216.59;5039864;28;20040;-79
2023/07/03 12:13:41;;;;;;;0.20;0.20;;;;;;;23.13;54.13;96211.66;5051049;28;20047;-80
2023/07/03 12:16:30;;;;;;;0.10;0.10;;;;;;;22.17;62.33;96219.66;5037663;28;20733;-79
2023/07/03 12:19:16;;;;;;;0.10;0.10;;;;;;;22.13;64.78;96221.47;5065916;28;20036;-79
2023/07/03 12:22:04;;;;;;;0.10;0.10;;;;;;;22.59;59.84;96217.03;5039872;28;20040;-79
2023/07/03 12:25:00;;;;;;;0.10;0.10;;;;;;;22.20;57.42;96216.31;5052826;28;20036;-79
2023/07/03 12:27:48;;;;;;;0.20;0.20;;;;;;;21.54;67.89;96218.59;5051335;28;20063;-79
2023/07/03 12:30:34;;;;;;;0.20;0.20;;;;;;;20.79;65.80;96215.31;5051019;28;20285;-79
2023/07/03 12:33:20;;;;;;;0.17;0.17;;;;;;;20.79;71.31;96221.53;5050699;28;20036;-79
2023/07/03 12:36:06;;;;;;;0.10;0.10;;;;;;;20.92;67.34;96208.09;5030729;28;20534;-79
2023/07/03 12:38:53;;;;;;;0.20;0.20;;;;;;;22.67;55.43;96211.50;5051815;28;20753;-79
2023/07/03 12:41:39;;;;;;;0.20;0.20;;;;;;;21.87;59.15;96227.81;5058646;28;20048;-79
2023/07/03 12:44:25;;;;;;;0.10;0.10;;;;;;;21.67;64.49;96220.31;5055695;28;20028;-79
2023/07/03 12:47:14;;;;;;;0.20;0.20;;;;;;;22.65;60.12;96221.16;5043054;28;20028;-78
2023/07/03 12:50:00;;;;;;;0.20;0.20;;;;;;;23.28;50.00;96224.69;5073624;28;20040;-79
2023/07/03 12:52:56;;;;;;;0.10;0.10;;;;;;;27.31;35.56;96209.41;5043308;28;20040;-80
2023/07/03 12:55:44;;;;;;;0.20;0.20;;;;;;;31.36;28.01;96216.69;5057097;28;20062;-79
2023/07/03 12:58:31;;;;;;;0.20;0.20;;;;;;;32.04;26.63;96195.53;5051932;28;20723;-80
2023/07/03 13:01:20;;;;;;;0.10;0.10;;;;;;;32.95;24.75;96201.44;5070770;28;20075;-79
2023/07/03 13:04:06;;;;;;;0.10;0.10;;;;;;;29.44;29.81;96199.41;5052703;28;20044;-79
2023/07/03 13:06:52;;;;;;;0.10;0.10;;;;;;;27.85;29.45;96215.94;5072669;28;20497;-80
2023/07/03 13:09:43;;;;;;;0.20;0.20;;;;;;;30.64;25.81;96202.47;5058401;28;20489;-79